sensor_id;sensor_type;location;lat;lon;timestamp;P1;durP1;ratioP1;P2;durP2;ratioP2
75739;SDS011;64357;51.344;6.550;2023-04-15T00:01:45;6.20;;;2.40;;
75739;SDS011;64357;51.344;6.550;2023-04-15T00:04:13;7.45;;;2.28;;
75739;SDS011;64357;51.344;6.550;2023-04-15T00:06:40;8.27;;;2.13;;
75739;SDS011;64357;51.344;6.550;2023-04-15T00:09:06;6.60;;;1.95;;
75739;SDS011;64357;51.344;6.550;2023-04-15T00:11:31;8.75;;;2.03;;
75739;SDS011;64357;51.344;6.550;2023-04-15T00:13:57;6.68;;;2.00;;
75739;SDS011;64357;51.344;6.550;2023-04-15T00:16:23;4.45;;;1.98;;
75739;SDS011;64357;51.344;6.550;2023-04-15T00:18:49;6.20;;;1.52;;
75739;SDS011;64357;51.344;6.550;2023-04-15T00:21:14;4.50;;;2.15;;
75739;SDS011;64357;51.344;6.550;2023-04-15T00:23:42;8.20;;;2.47;;
75739;SDS011;64357;51.344;6.550;2023-04-15T00:26:13;7.70;;;2.20;;
75739;SDS011;64357;51.344;6.550;2023-04-15T00:28:39;4.72;;;2.08;;
75739;SDS011;64357;51.344;6.550;2023-04-15T00:31:07;7.17;;;2.17;;
75739;SDS011;64357;51.344;6.550;2023-04-15T00:33:32;4.63;;;1.92;;
75739;SDS011;64357;51.344;6.550;2023-04-15T00:36:00;7.18;;;2.25;;
75739;SDS011;64357;51.344;6.550;2023-04-15T00:38:27;7.70;;;2.08;;
75739;SDS011;64357;51.344;6.550;2023-04-15T00:40:53;5.88;;;1.80;;
75739;SDS011;64357;51.344;6.550;2023-04-15T00:43:19;7.20;;;2.45;;
75739;SDS011;64357;51.344;6.550;2023-04-15T00:45:45;8.60;;;2.20;;
75739;SDS011;64357;51.344;6.550;2023-04-15T00:48:11;6.03;;;2.15;;
75739;SDS011;64357;51.344;6.550;2023-04-15T00:53:07;6.80;;;2.33;;
75739;SDS011;64357;51.344;6.550;2023-04-15T00:55:33;8.10;;;2.20;;
75739;SDS011;64357;51.344;6.550;2023-04-15T00:58:00;6.80;;;2.28;;
75739;SDS011;64357;51.344;6.550;2023-04-15T01:00:25;9.37;;;2.67;;
75739;SDS011;64357;51.344;6.550;2023-04-15T01:02:51;7.95;;;2.83;;
75739;SDS011;64357;51.344;6.550;2023-04-15T01:05:16;14.50;;;3.40;;
75739;SDS011;64357;51.344;6.550;2023-04-15T01:07:45;9.00;;;2.53;;
75739;SDS011;64357;51.344;6.550;2023-04-15T01:10:11;12.07;;;3.38;;
75739;SDS011;64357;51.344;6.550;2023-04-15T01:12:37;6.85;;;2.80;;
75739;SDS011;64357;51.344;6.550;2023-04-15T01:15:03;10.38;;;3.05;;
75739;SDS011;64357;51.344;6.550;2023-04-15T01:17:29;6.45;;;2.60;;
75739;SDS011;64357;51.344;6.550;2023-04-15T01:19:57;7.97;;;2.95;;
75739;SDS011;64357;51.344;6.550;2023-04-15T01:22:27;7.72;;;2.75;;
75739;SDS011;64357;51.344;6.550;2023-04-15T01:24:59;7.68;;;3.00;;
75739;SDS011;64357;51.344;6.550;2023-04-15T01:27:30;8.82;;;3.33;;
75739;SDS011;64357;51.344;6.550;2023-04-15T01:29:56;8.73;;;3.22;;
75739;SDS011;64357;51.344;6.550;2023-04-15T01:32:22;8.60;;;3.05;;
75739;SDS011;64357;51.344;6.550;2023-04-15T01:34:48;11.05;;;3.15;;
75739;SDS011;64357;51.344;6.550;2023-04-15T01:37:16;9.73;;;3.38;;
75739;SDS011;64357;51.344;6.550;2023-04-15T01:39:44;11.38;;;3.38;;
75739;SDS011;64357;51.344;6.550;2023-04-15T01:42:11;8.98;;;3.20;;
75739;SDS011;64357;51.344;6.550;2023-04-15T01:44:37;12.98;;;3.63;;
75739;SDS011;64357;51.344;6.550;2023-04-15T01:47:02;11.10;;;3.40;;
75739;SDS011;64357;51.344;6.550;2023-04-15T01:49:27;10.20;;;2.77;;
75739;SDS011;64357;51.344;6.550;2023-04-15T01:51:53;8.80;;;3.00;;
75739;SDS011;64357;51.344;6.550;2023-04-15T01:54:18;7.85;;;3.35;;
75739;SDS011;64357;51.344;6.550;2023-04-15T01:56:46;13.15;;;3.13;;
75739;SDS011;64357;51.344;6.550;2023-04-15T01:59:11;8.95;;;3.22;;
75739;SDS011;64357;51.344;6.550;2023-04-15T02:01:37;9.85;;;3.33;;
75739;SDS011;64357;51.344;6.550;2023-04-15T02:04:03;8.30;;;3.67;;
75739;SDS011;64357;51.344;6.550;2023-04-15T02:06:29;8.38;;;3.63;;
75739;SDS011;64357;51.344;6.550;2023-04-15T02:08:57;9.27;;;3.50;;
75739;SDS011;64357;51.344;6.550;2023-04-15T02:11:25;10.40;;;3.85;;
75739;SDS011;64357;51.344;6.550;2023-04-15T02:13:53;11.32;;;3.35;;
75739;SDS011;64357;51.344;6.550;2023-04-15T02:16:21;10.00;;;3.60;;
75739;SDS011;64357;51.344;6.550;2023-04-15T02:18:49;8.73;;;3.33;;
75739;SDS011;64357;51.344;6.550;2023-04-15T02:21:15;9.50;;;3.40;;
75739;SDS011;64357;51.344;6.550;2023-04-15T02:23:44;10.75;;;3.53;;
75739;SDS011;64357;51.344;6.550;2023-04-15T02:26:12;9.25;;;3.33;;
75739;SDS011;64357;51.344;6.550;2023-04-15T02:28:37;9.85;;;3.80;;
75739;SDS011;64357;51.344;6.550;2023-04-15T02:31:05;7.00;;;3.17;;
75739;SDS011;64357;51.344;6.550;2023-04-15T02:33:32;8.90;;;3.50;;
75739;SDS011;64357;51.344;6.550;2023-04-15T02:36:03;10.23;;;4.03;;
75739;SDS011;64357;51.344;6.550;2023-04-15T02:38:29;9.88;;;3.85;;
75739;SDS011;64357;51.344;6.550;2023-04-15T02:40:58;10.98;;;4.10;;
75739;SDS011;64357;51.344;6.550;2023-04-15T02:43:23;9.00;;;3.83;;
75739;SDS011;64357;51.344;6.550;2023-04-15T02:45:49;12.57;;;3.83;;
75739;SDS011;64357;51.344;6.550;2023-04-15T02:48:15;10.65;;;3.97;;
75739;SDS011;64357;51.344;6.550;2023-04-15T02:50:42;10.43;;;4.07;;
75739;SDS011;64357;51.344;6.550;2023-04-15T02:53:08;13.02;;;4.50;;
75739;SDS011;64357;51.344;6.550;2023-04-15T02:55:33;13.25;;;4.38;;
75739;SDS011;64357;51.344;6.550;2023-04-15T02:58:01;11.10;;;4.18;;
75739;SDS011;64357;51.344;6.550;2023-04-15T03:00:26;8.70;;;3.57;;
75739;SDS011;64357;51.344;6.550;2023-04-15T03:02:56;13.18;;;4.32;;
75739;SDS011;64357;51.344;6.550;2023-04-15T03:07:49;9.90;;;4.40;;
75739;SDS011;64357;51.344;6.550;2023-04-15T03:10:17;11.57;;;4.38;;
75739;SDS011;64357;51.344;6.550;2023-04-15T03:12:43;12.68;;;4.70;;
75739;SDS011;64357;51.344;6.550;2023-04-15T03:15:09;13.13;;;4.82;;
75739;SDS011;64357;51.344;6.550;2023-04-15T03:17:35;11.60;;;4.57;;
75739;SDS011;64357;51.344;6.550;2023-04-15T03:20:01;11.83;;;4.23;;
75739;SDS011;64357;51.344;6.550;2023-04-15T03:22:28;11.55;;;4.68;;
75739;SDS011;64357;51.344;6.550;2023-04-15T03:24:57;11.55;;;4.88;;
75739;SDS011;64357;51.344;6.550;2023-04-15T03:27:22;14.30;;;5.00;;
75739;SDS011;64357;51.344;6.550;2023-04-15T03:29:48;12.05;;;4.68;;
75739;SDS011;64357;51.344;6.550;2023-04-15T03:32:13;14.38;;;5.10;;
75739;SDS011;64357;51.344;6.550;2023-04-15T03:34:41;12.85;;;4.85;;
75739;SDS011;64357;51.344;6.550;2023-04-15T03:37:07;12.18;;;5.05;;
75739;SDS011;64357;51.344;6.550;2023-04-15T03:39:32;9.98;;;5.03;;
75739;SDS011;64357;51.344;6.550;2023-04-15T03:41:58;12.38;;;4.78;;
75739;SDS011;64357;51.344;6.550;2023-04-15T03:44:28;12.20;;;5.32;;
75739;SDS011;64357;51.344;6.550;2023-04-15T03:46:53;13.43;;;4.47;;
75739;SDS011;64357;51.344;6.550;2023-04-15T03:49:19;13.63;;;4.95;;
75739;SDS011;64357;51.344;6.550;2023-04-15T03:51:46;14.32;;;5.30;;
75739;SDS011;64357;51.344;6.550;2023-04-15T03:54:12;11.15;;;4.55;;
75739;SDS011;64357;51.344;6.550;2023-04-15T03:56:42;13.43;;;5.07;;
75739;SDS011;64357;51.344;6.550;2023-04-15T03:59:07;12.52;;;5.13;;
75739;SDS011;64357;51.344;6.550;2023-04-15T04:01:33;13.07;;;5.70;;
75739;SDS011;64357;51.344;6.550;2023-04-15T04:04:03;15.30;;;5.95;;
75739;SDS011;64357;51.344;6.550;2023-04-15T04:06:29;11.32;;;5.30;;
75739;SDS011;64357;51.344;6.550;2023-04-15T04:08:55;11.68;;;5.75;;
75739;SDS011;64357;51.344;6.550;2023-04-15T04:11:20;11.02;;;5.05;;
75739;SDS011;64357;51.344;6.550;2023-04-15T04:13:46;12.98;;;5.07;;
75739;SDS011;64357;51.344;6.550;2023-04-15T04:16:11;12.07;;;5.10;;
75739;SDS011;64357;51.344;6.550;2023-04-15T04:18:36;11.67;;;4.60;;
75739;SDS011;64357;51.344;6.550;2023-04-15T04:21:04;13.90;;;5.32;;
75739;SDS011;64357;51.344;6.550;2023-04-15T04:23:30;13.00;;;5.00;;
75739;SDS011;64357;51.344;6.550;2023-04-15T04:25:56;12.20;;;5.38;;
75739;SDS011;64357;51.344;6.550;2023-04-15T04:28:22;13.00;;;5.70;;
75739;SDS011;64357;51.344;6.550;2023-04-15T04:30:47;13.95;;;5.40;;
75739;SDS011;64357;51.344;6.550;2023-04-15T04:33:15;15.85;;;5.70;;
75739;SDS011;64357;51.344;6.550;2023-04-15T04:35:43;15.07;;;5.97;;
75739;SDS011;64357;51.344;6.550;2023-04-15T04:38:08;14.63;;;5.35;;
75739;SDS011;64357;51.344;6.550;2023-04-15T04:40:34;12.03;;;5.40;;
75739;SDS011;64357;51.344;6.550;2023-04-15T04:42:59;15.23;;;6.22;;
75739;SDS011;64357;51.344;6.550;2023-04-15T04:45:28;12.82;;;5.70;;
75739;SDS011;64357;51.344;6.550;2023-04-15T04:47:58;11.70;;;5.22;;
75739;SDS011;64357;51.344;6.550;2023-04-15T04:50:26;12.10;;;5.82;;
75739;SDS011;64357;51.344;6.550;2023-04-15T04:52:51;12.80;;;5.40;;
75739;SDS011;64357;51.344;6.550;2023-04-15T04:55:19;12.17;;;5.20;;
75739;SDS011;64357;51.344;6.550;2023-04-15T04:57:45;12.77;;;5.32;;
75739;SDS011;64357;51.344;6.550;2023-04-15T05:00:11;15.13;;;5.95;;
75739;SDS011;64357;51.344;6.550;2023-04-15T05:02:37;13.82;;;5.53;;
75739;SDS011;64357;51.344;6.550;2023-04-15T05:05:05;13.43;;;5.03;;
75739;SDS011;64357;51.344;6.550;2023-04-15T05:07:33;14.07;;;5.28;;
75739;SDS011;64357;51.344;6.550;2023-04-15T05:09:59;12.27;;;4.78;;
75739;SDS011;64357;51.344;6.550;2023-04-15T05:12:27;13.70;;;5.63;;
75739;SDS011;64357;51.344;6.550;2023-04-15T05:14:55;13.43;;;5.35;;
75739;SDS011;64357;51.344;6.550;2023-04-15T05:17:20;12.70;;;4.93;;
75739;SDS011;64357;51.344;6.550;2023-04-15T05:19:48;12.10;;;5.20;;
75739;SDS011;64357;51.344;6.550;2023-04-15T05:22:17;13.48;;;6.25;;
75739;SDS011;64357;51.344;6.550;2023-04-15T05:24:43;15.23;;;5.82;;
75739;SDS011;64357;51.344;6.550;2023-04-15T05:27:13;14.30;;;5.93;;
75739;SDS011;64357;51.344;6.550;2023-04-15T05:29:41;13.85;;;6.18;;
75739;SDS011;64357;51.344;6.550;2023-04-15T05:32:09;13.75;;;5.53;;
75739;SDS011;64357;51.344;6.550;2023-04-15T05:34:35;15.60;;;5.47;;
75739;SDS011;64357;51.344;6.550;2023-04-15T05:37:01;15.43;;;5.40;;
75739;SDS011;64357;51.344;6.550;2023-04-15T05:39:28;12.00;;;5.47;;
75739;SDS011;64357;51.344;6.550;2023-04-15T05:41:56;14.05;;;5.70;;
75739;SDS011;64357;51.344;6.550;2023-04-15T05:44:24;10.88;;;4.85;;
75739;SDS011;64357;51.344;6.550;2023-04-15T05:46:50;15.18;;;5.53;;
75739;SDS011;64357;51.344;6.550;2023-04-15T05:49:21;15.63;;;5.88;;
75739;SDS011;64357;51.344;6.550;2023-04-15T05:51:46;12.68;;;5.25;;
75739;SDS011;64357;51.344;6.550;2023-04-15T05:54:12;14.10;;;5.55;;
75739;SDS011;64357;51.344;6.550;2023-04-15T05:56:37;12.98;;;5.55;;
75739;SDS011;64357;51.344;6.550;2023-04-15T05:59:06;13.43;;;5.53;;
75739;SDS011;64357;51.344;6.550;2023-04-15T06:01:34;12.93;;;5.23;;
75739;SDS011;64357;51.344;6.550;2023-04-15T06:04:00;12.18;;;5.35;;
75739;SDS011;64357;51.344;6.550;2023-04-15T06:06:25;13.15;;;5.05;;
75739;SDS011;64357;51.344;6.550;2023-04-15T06:08:53;13.70;;;5.40;;
75739;SDS011;64357;51.344;6.550;2023-04-15T06:11:19;14.95;;;5.78;;
75739;SDS011;64357;51.344;6.550;2023-04-15T06:13:46;12.65;;;4.93;;
75739;SDS011;64357;51.344;6.550;2023-04-15T06:16:11;16.25;;;5.20;;
75739;SDS011;64357;51.344;6.550;2023-04-15T06:18:37;15.73;;;5.40;;
75739;SDS011;64357;51.344;6.550;2023-04-15T06:21:06;12.30;;;5.82;;
75739;SDS011;64357;51.344;6.550;2023-04-15T06:23:35;12.85;;;4.75;;
75739;SDS011;64357;51.344;6.550;2023-04-15T06:26:00;15.25;;;6.45;;
75739;SDS011;64357;51.344;6.550;2023-04-15T06:28:26;16.63;;;5.93;;
75739;SDS011;64357;51.344;6.550;2023-04-15T06:30:52;13.13;;;5.10;;
75739;SDS011;64357;51.344;6.550;2023-04-15T06:33:18;14.27;;;5.43;;
75739;SDS011;64357;51.344;6.550;2023-04-15T06:35:43;12.18;;;5.35;;
75739;SDS011;64357;51.344;6.550;2023-04-15T06:38:11;13.43;;;5.35;;
75739;SDS011;64357;51.344;6.550;2023-04-15T06:40:39;14.57;;;5.63;;
75739;SDS011;64357;51.344;6.550;2023-04-15T06:43:07;13.63;;;5.03;;
75739;SDS011;64357;51.344;6.550;2023-04-15T06:45:33;13.70;;;5.30;;
75739;SDS011;64357;51.344;6.550;2023-04-15T06:47:58;14.23;;;6.18;;
75739;SDS011;64357;51.344;6.550;2023-04-15T06:50:26;13.70;;;5.50;;
75739;SDS011;64357;51.344;6.550;2023-04-15T06:52:54;14.63;;;5.90;;
75739;SDS011;64357;51.344;6.550;2023-04-15T06:55:21;11.35;;;5.43;;
75739;SDS011;64357;51.344;6.550;2023-04-15T06:57:49;14.90;;;5.00;;
75739;SDS011;64357;51.344;6.550;2023-04-15T07:00:14;12.73;;;5.70;;
75739;SDS011;64357;51.344;6.550;2023-04-15T07:02:40;13.65;;;5.65;;
75739;SDS011;64357;51.344;6.550;2023-04-15T07:05:06;15.23;;;6.22;;
75739;SDS011;64357;51.344;6.550;2023-04-15T07:07:32;14.05;;;5.57;;
75739;SDS011;64357;51.344;6.550;2023-04-15T07:09:58;13.77;;;5.90;;
75739;SDS011;64357;51.344;6.550;2023-04-15T07:12:30;12.98;;;5.47;;
75739;SDS011;64357;51.344;6.550;2023-04-15T07:14:56;13.85;;;6.13;;
75739;SDS011;64357;51.344;6.550;2023-04-15T07:17:22;14.23;;;6.43;;
75739;SDS011;64357;51.344;6.550;2023-04-15T07:19:47;13.65;;;6.03;;
75739;SDS011;64357;51.344;6.550;2023-04-15T07:22:13;11.20;;;5.47;;
75739;SDS011;64357;51.344;6.550;2023-04-15T07:24:41;10.93;;;4.75;;
75739;SDS011;64357;51.344;6.550;2023-04-15T07:27:06;14.48;;;6.22;;
75739;SDS011;64357;51.344;6.550;2023-04-15T07:29:34;13.02;;;5.30;;
75739;SDS011;64357;51.344;6.550;2023-04-15T07:32:00;12.10;;;5.70;;
75739;SDS011;64357;51.344;6.550;2023-04-15T07:34:25;14.40;;;5.78;;
75739;SDS011;64357;51.344;6.550;2023-04-15T07:36:51;14.13;;;5.03;;
75739;SDS011;64357;51.344;6.550;2023-04-15T07:39:19;11.82;;;5.45;;
75739;SDS011;64357;51.344;6.550;2023-04-15T07:41:45;11.30;;;4.22;;
75739;SDS011;64357;51.344;6.550;2023-04-15T07:44:10;9.27;;;3.95;;
75739;SDS011;64357;51.344;6.550;2023-04-15T07:46:35;12.13;;;4.65;;
75739;SDS011;64357;51.344;6.550;2023-04-15T07:49:02;13.45;;;3.63;;
75739;SDS011;64357;51.344;6.550;2023-04-15T07:51:27;9.18;;;3.30;;
75739;SDS011;64357;51.344;6.550;2023-04-15T07:53:56;9.30;;;3.10;;
75739;SDS011;64357;51.344;6.550;2023-04-15T07:56:24;9.57;;;3.60;;
75739;SDS011;64357;51.344;6.550;2023-04-15T07:58:50;7.75;;;3.17;;
75739;SDS011;64357;51.344;6.550;2023-04-15T08:01:18;8.82;;;3.00;;
75739;SDS011;64357;51.344;6.550;2023-04-15T08:03:44;7.28;;;3.15;;
75739;SDS011;64357;51.344;6.550;2023-04-15T08:06:09;10.27;;;3.90;;
75739;SDS011;64357;51.344;6.550;2023-04-15T08:08:35;9.68;;;3.70;;
75739;SDS011;64357;51.344;6.550;2023-04-15T08:11:05;10.45;;;3.97;;
75739;SDS011;64357;51.344;6.550;2023-04-15T08:13:33;8.82;;;3.15;;
75739;SDS011;64357;51.344;6.550;2023-04-15T08:19:03;8.15;;;2.28;;
75739;SDS011;64357;51.344;6.550;2023-04-15T08:21:29;3.67;;;1.33;;
75739;SDS011;64357;51.344;6.550;2023-04-15T08:23:55;6.78;;;2.00;;
75739;SDS011;64357;51.344;6.550;2023-04-15T08:26:21;6.53;;;1.90;;
75739;SDS011;64357;51.344;6.550;2023-04-15T08:28:47;8.32;;;1.92;;
75739;SDS011;64357;51.344;6.550;2023-04-15T08:31:17;3.30;;;1.50;;
75739;SDS011;64357;51.344;6.550;2023-04-15T08:33:46;5.93;;;1.70;;
75739;SDS011;64357;51.344;6.550;2023-04-15T08:36:12;5.35;;;1.98;;
75739;SDS011;64357;51.344;6.550;2023-04-15T08:38:57;6.05;;;1.85;;
75739;SDS011;64357;51.344;6.550;2023-04-15T08:41:28;4.95;;;2.05;;
75739;SDS011;64357;51.344;6.550;2023-04-15T08:44:16;5.47;;;1.83;;
75739;SDS011;64357;51.344;6.550;2023-04-15T08:46:45;6.93;;;2.33;;
75739;SDS011;64357;51.344;6.550;2023-04-15T08:49:15;6.47;;;1.55;;
75739;SDS011;64357;51.344;6.550;2023-04-15T08:51:43;3.92;;;1.48;;
75739;SDS011;64357;51.344;6.550;2023-04-15T08:54:10;4.72;;;1.70;;
75739;SDS011;64357;51.344;6.550;2023-04-15T08:56:38;5.22;;;1.50;;
75739;SDS011;64357;51.344;6.550;2023-04-15T08:59:04;3.70;;;1.63;;
75739;SDS011;64357;51.344;6.550;2023-04-15T09:01:37;4.30;;;1.55;;
75739;SDS011;64357;51.344;6.550;2023-04-15T09:04:06;7.55;;;1.70;;
75739;SDS011;64357;51.344;6.550;2023-04-15T09:06:38;4.43;;;1.58;;
75739;SDS011;64357;51.344;6.550;2023-04-15T09:09:14;6.35;;;2.00;;
75739;SDS011;64357;51.344;6.550;2023-04-15T09:11:45;7.35;;;2.40;;
75739;SDS011;64357;51.344;6.550;2023-04-15T09:14:10;4.95;;;1.90;;
75739;SDS011;64357;51.344;6.550;2023-04-15T09:19:43;5.82;;;2.55;;
75739;SDS011;64357;51.344;6.550;2023-04-15T09:22:12;5.85;;;1.75;;
75739;SDS011;64357;51.344;6.550;2023-04-15T09:24:43;5.28;;;1.85;;
75739;SDS011;64357;51.344;6.550;2023-04-15T09:27:11;5.80;;;1.80;;
75739;SDS011;64357;51.344;6.550;2023-04-15T09:29:43;4.68;;;1.58;;
75739;SDS011;64357;51.344;6.550;2023-04-15T09:32:22;5.18;;;1.75;;
75739;SDS011;64357;51.344;6.550;2023-04-15T09:34:51;5.53;;;1.90;;
75739;SDS011;64357;51.344;6.550;2023-04-15T09:37:33;5.60;;;1.90;;
75739;SDS011;64357;51.344;6.550;2023-04-15T09:40:03;5.72;;;1.73;;
75739;SDS011;64357;51.344;6.550;2023-04-15T09:42:35;4.25;;;1.50;;
75739;SDS011;64357;51.344;6.550;2023-04-15T09:45:09;3.95;;;1.63;;
75739;SDS011;64357;51.344;6.550;2023-04-15T09:47:36;4.85;;;1.50;;
75739;SDS011;64357;51.344;6.550;2023-04-15T09:50:04;4.15;;;1.25;;
75739;SDS011;64357;51.344;6.550;2023-04-15T09:52:30;4.32;;;1.65;;
75739;SDS011;64357;51.344;6.550;2023-04-15T09:54:58;4.63;;;2.00;;
75739;SDS011;64357;51.344;6.550;2023-04-15T09:57:36;5.70;;;1.80;;
75739;SDS011;64357;51.344;6.550;2023-04-15T10:00:03;3.63;;;1.55;;
75739;SDS011;64357;51.344;6.550;2023-04-15T10:02:35;7.13;;;2.88;;
75739;SDS011;64357;51.344;6.550;2023-04-15T10:05:05;6.53;;;2.28;;
75739;SDS011;64357;51.344;6.550;2023-04-15T10:07:38;4.93;;;1.65;;
75739;SDS011;64357;51.344;6.550;2023-04-15T10:10:07;5.68;;;1.98;;
75739;SDS011;64357;51.344;6.550;2023-04-15T10:12:36;4.95;;;1.65;;
75739;SDS011;64357;51.344;6.550;2023-04-15T10:15:05;2.50;;;1.17;;
75739;SDS011;64357;51.344;6.550;2023-04-15T10:17:40;3.28;;;1.35;;
75739;SDS011;64357;51.344;6.550;2023-04-15T10:20:14;3.13;;;1.30;;
75739;SDS011;64357;51.344;6.550;2023-04-15T10:22:45;3.30;;;1.30;;
75739;SDS011;64357;51.344;6.550;2023-04-15T10:25:11;2.65;;;1.25;;
75739;SDS011;64357;51.344;6.550;2023-04-15T10:27:45;4.82;;;1.40;;
75739;SDS011;64357;51.344;6.550;2023-04-15T10:30:25;3.22;;;1.15;;
75739;SDS011;64357;51.344;6.550;2023-04-15T10:32:51;5.30;;;1.45;;
75739;SDS011;64357;51.344;6.550;2023-04-15T10:35:17;4.70;;;1.55;;
75739;SDS011;64357;51.344;6.550;2023-04-15T10:37:47;3.85;;;1.48;;
75739;SDS011;64357;51.344;6.550;2023-04-15T10:40:22;4.30;;;1.75;;
75739;SDS011;64357;51.344;6.550;2023-04-15T10:42:51;4.72;;;1.90;;
75739;SDS011;64357;51.344;6.550;2023-04-15T10:45:17;4.18;;;1.88;;
75739;SDS011;64357;51.344;6.550;2023-04-15T10:47:43;4.50;;;2.05;;
75739;SDS011;64357;51.344;6.550;2023-04-15T10:50:08;4.57;;;2.03;;
75739;SDS011;64357;51.344;6.550;2023-04-15T10:52:34;5.77;;;2.20;;
75739;SDS011;64357;51.344;6.550;2023-04-15T10:55:02;4.90;;;2.08;;
75739;SDS011;64357;51.344;6.550;2023-04-15T10:57:52;6.20;;;2.83;;
75739;SDS011;64357;51.344;6.550;2023-04-15T11:08:05;5.82;;;2.08;;
75739;SDS011;64357;51.344;6.550;2023-04-15T11:12:58;5.07;;;1.97;;
75739;SDS011;64357;51.344;6.550;2023-04-15T11:20:55;5.93;;;2.13;;
75739;SDS011;64357;51.344;6.550;2023-04-15T11:23:31;5.85;;;1.92;;
75739;SDS011;64357;51.344;6.550;2023-04-15T11:25:59;4.68;;;1.58;;
75739;SDS011;64357;51.344;6.550;2023-04-15T11:28:29;4.68;;;1.67;;
75739;SDS011;64357;51.344;6.550;2023-04-15T11:30:57;3.95;;;1.48;;
75739;SDS011;64357;51.344;6.550;2023-04-15T11:33:29;5.32;;;2.33;;
75739;SDS011;64357;51.344;6.550;2023-04-15T11:35:55;3.80;;;1.77;;
75739;SDS011;64357;51.344;6.550;2023-04-15T11:38:20;4.13;;;1.77;;
75739;SDS011;64357;51.344;6.550;2023-04-15T11:40:49;5.25;;;1.80;;
75739;SDS011;64357;51.344;6.550;2023-04-15T11:43:16;5.63;;;2.25;;
75739;SDS011;64357;51.344;6.550;2023-04-15T11:48:21;6.00;;;2.15;;
75739;SDS011;64357;51.344;6.550;2023-04-15T11:50:53;4.95;;;2.00;;
75739;SDS011;64357;51.344;6.550;2023-04-15T11:53:20;6.35;;;2.15;;
75739;SDS011;64357;51.344;6.550;2023-04-15T11:55:47;5.00;;;1.90;;
75739;SDS011;64357;51.344;6.550;2023-04-15T11:58:15;4.25;;;2.05;;
75739;SDS011;64357;51.344;6.550;2023-04-15T12:01:01;5.35;;;1.60;;
75739;SDS011;64357;51.344;6.550;2023-04-15T12:03:30;5.78;;;2.10;;
75739;SDS011;64357;51.344;6.550;2023-04-15T12:06:20;4.13;;;1.52;;
75739;SDS011;64357;51.344;6.550;2023-04-15T12:11:49;3.42;;;1.20;;
75739;SDS011;64357;51.344;6.550;2023-04-15T12:14:31;3.30;;;1.20;;
75739;SDS011;64357;51.344;6.550;2023-04-15T12:19:27;4.25;;;1.30;;
75739;SDS011;64357;51.344;6.550;2023-04-15T12:22:00;4.28;;;1.50;;
75739;SDS011;64357;51.344;6.550;2023-04-15T12:24:30;3.63;;;1.38;;
75739;SDS011;64357;51.344;6.550;2023-04-15T12:26:56;4.68;;;2.10;;
75739;SDS011;64357;51.344;6.550;2023-04-15T12:29:26;3.72;;;1.45;;
75739;SDS011;64357;51.344;6.550;2023-04-15T12:31:53;5.70;;;1.50;;
75739;SDS011;64357;51.344;6.550;2023-04-15T12:34:29;3.88;;;1.50;;
75739;SDS011;64357;51.344;6.550;2023-04-15T12:37:03;1.95;;;1.00;;
75739;SDS011;64357;51.344;6.550;2023-04-15T12:39:30;4.50;;;1.55;;
75739;SDS011;64357;51.344;6.550;2023-04-15T12:41:58;4.25;;;1.90;;
75739;SDS011;64357;51.344;6.550;2023-04-15T12:44:25;5.03;;;1.58;;
75739;SDS011;64357;51.344;6.550;2023-04-15T12:46:51;4.63;;;1.40;;
75739;SDS011;64357;51.344;6.550;2023-04-15T12:49:17;4.95;;;1.60;;
75739;SDS011;64357;51.344;6.550;2023-04-15T12:51:49;6.07;;;2.20;;
75739;SDS011;64357;51.344;6.550;2023-04-15T12:54:15;5.88;;;2.03;;
75739;SDS011;64357;51.344;6.550;2023-04-15T12:56:41;6.75;;;1.85;;
75739;SDS011;64357;51.344;6.550;2023-04-15T12:59:07;5.65;;;1.92;;
75739;SDS011;64357;51.344;6.550;2023-04-15T13:01:33;4.60;;;1.70;;
75739;SDS011;64357;51.344;6.550;2023-04-15T13:03:59;6.90;;;1.85;;
75739;SDS011;64357;51.344;6.550;2023-04-15T13:06:25;4.68;;;1.65;;
75739;SDS011;64357;51.344;6.550;2023-04-15T13:08:53;4.95;;;1.77;;
75739;SDS011;64357;51.344;6.550;2023-04-15T13:11:19;4.53;;;1.50;;
75739;SDS011;64357;51.344;6.550;2023-04-15T13:13:47;5.65;;;1.98;;
75739;SDS011;64357;51.344;6.550;2023-04-15T13:16:13;3.08;;;1.13;;
75739;SDS011;64357;51.344;6.550;2023-04-15T13:18:38;2.85;;;1.13;;
75739;SDS011;64357;51.344;6.550;2023-04-15T13:21:04;3.13;;;1.17;;
75739;SDS011;64357;51.344;6.550;2023-04-15T13:23:31;2.67;;;1.13;;
75739;SDS011;64357;51.344;6.550;2023-04-15T13:25:57;3.70;;;1.42;;
75739;SDS011;64357;51.344;6.550;2023-04-15T13:28:24;4.22;;;1.55;;
75739;SDS011;64357;51.344;6.550;2023-04-15T13:30:53;2.85;;;1.10;;
75739;SDS011;64357;51.344;6.550;2023-04-15T13:33:18;5.30;;;1.38;;
75739;SDS011;64357;51.344;6.550;2023-04-15T13:35:44;3.17;;;1.20;;
75739;SDS011;64357;51.344;6.550;2023-04-15T13:38:09;5.13;;;1.53;;
75739;SDS011;64357;51.344;6.550;2023-04-15T13:40:34;3.47;;;1.38;;
75739;SDS011;64357;51.344;6.550;2023-04-15T13:43:00;6.82;;;1.88;;
75739;SDS011;64357;51.344;6.550;2023-04-15T13:45:26;4.05;;;1.50;;
75739;SDS011;64357;51.344;6.550;2023-04-15T13:47:51;4.30;;;1.52;;
75739;SDS011;64357;51.344;6.550;2023-04-15T13:50:17;5.68;;;1.90;;
75739;SDS011;64357;51.344;6.550;2023-04-15T13:52:42;2.30;;;0.90;;
75739;SDS011;64357;51.344;6.550;2023-04-15T13:55:10;1.92;;;0.80;;
75739;SDS011;64357;51.344;6.550;2023-04-15T13:57:38;4.33;;;1.60;;
75739;SDS011;64357;51.344;6.550;2023-04-15T14:00:04;2.58;;;1.17;;
75739;SDS011;64357;51.344;6.550;2023-04-15T14:02:30;4.65;;;1.58;;
75739;SDS011;64357;51.344;6.550;2023-04-15T14:04:55;6.30;;;1.55;;
75739;SDS011;64357;51.344;6.550;2023-04-15T14:07:21;5.55;;;2.00;;
75739;SDS011;64357;51.344;6.550;2023-04-15T14:09:46;2.95;;;1.30;;
75739;SDS011;64357;51.344;6.550;2023-04-15T14:12:12;3.77;;;1.23;;
75739;SDS011;64357;51.344;6.550;2023-04-15T14:14:37;3.83;;;1.52;;
75739;SDS011;64357;51.344;6.550;2023-04-15T14:17:03;2.00;;;1.00;;
75739;SDS011;64357;51.344;6.550;2023-04-15T14:19:30;3.47;;;1.50;;
75739;SDS011;64357;51.344;6.550;2023-04-15T14:21:56;3.10;;;1.30;;
75739;SDS011;64357;51.344;6.550;2023-04-15T14:24:22;5.72;;;1.65;;
75739;SDS011;64357;51.344;6.550;2023-04-15T14:26:47;3.22;;;1.13;;
75739;SDS011;64357;51.344;6.550;2023-04-15T14:29:15;2.55;;;1.00;;
75739;SDS011;64357;51.344;6.550;2023-04-15T14:31:40;3.58;;;1.38;;
75739;SDS011;64357;51.344;6.550;2023-04-15T14:34:08;2.50;;;1.08;;
75739;SDS011;64357;51.344;6.550;2023-04-15T14:36:36;2.53;;;1.17;;
75739;SDS011;64357;51.344;6.550;2023-04-15T14:39:02;3.15;;;1.15;;
75739;SDS011;64357;51.344;6.550;2023-04-15T14:41:32;3.00;;;0.65;;
75739;SDS011;64357;51.344;6.550;2023-04-15T14:43:57;3.05;;;1.13;;
75739;SDS011;64357;51.344;6.550;2023-04-15T14:46:22;2.73;;;0.93;;
75739;SDS011;64357;51.344;6.550;2023-04-15T14:48:49;4.10;;;1.33;;
75739;SDS011;64357;51.344;6.550;2023-04-15T14:51:17;2.45;;;1.27;;
75739;SDS011;64357;51.344;6.550;2023-04-15T14:53:42;3.10;;;1.10;;
75739;SDS011;64357;51.344;6.550;2023-04-15T14:56:08;2.65;;;1.00;;
75739;SDS011;64357;51.344;6.550;2023-04-15T14:58:33;3.20;;;1.20;;
75739;SDS011;64357;51.344;6.550;2023-04-15T15:00:59;3.67;;;1.33;;
75739;SDS011;64357;51.344;6.550;2023-04-15T15:03:25;2.97;;;1.00;;
75739;SDS011;64357;51.344;6.550;2023-04-15T15:05:51;0.90;;;0.60;;
75739;SDS011;64357;51.344;6.550;2023-04-15T15:08:16;0.33;;;0.33;;
75739;SDS011;64357;51.344;6.550;2023-04-15T15:10:42;2.43;;;0.90;;
75739;SDS011;64357;51.344;6.550;2023-04-15T15:13:07;2.25;;;0.70;;
75739;SDS011;64357;51.344;6.550;2023-04-15T15:15:34;3.25;;;1.02;;
75739;SDS011;64357;51.344;6.550;2023-04-15T15:18:05;2.80;;;1.05;;
75739;SDS011;64357;51.344;6.550;2023-04-15T15:20:30;2.75;;;1.02;;